Pagrindinis puslapis
METAR-TAF:

METAR-TAF

Oro uostai :

Sanya, Kinija

platuma: 18-18N, ilguma: 109-24E, Aukštis: 27 m

Dabartinis oras

Ataskaita buvo paskelbta 53 minutes, ne 05:00 UTC
Vėjas 10 kt iš Rytų/Pietryčių, svyruoja nuo Rytų ir Pietų/Pietryčių
Temperatūra 31°C
Drėgmė 59%
Slėgis 1016 hPa
Matomumas 10 km arba daugiau
Išsisklaidę debesys ne aukštis 2100 ft
Su prošvaistėmis ne aukštis 7000 ft

METAR: ZJSY 100500Z 11005MPS 080V150 9999 SCT021 BKN070 31/22 Q1016 NOSIG

Laikas: 13:53 (05:53 UTC)

Prognozė

Ataskaita buvo paskelbta 2 valandos ir 50 minutes, ne 03:03 UTC
Prognozė galioja nuo 10 metu 06 UTC su 11 metu 06 UTC
Vėjas 8 kt iš Rytų
Matomumas 10 km arba daugiau
Mažai debesys ne aukštis 2000 ft
Išsisklaidę debesys ne aukštis 5000 ft

TAF: ZJSY 100303Z 1006/1106 10004MPS 9999 FEW020 SCT050 TX31/1006Z TN24/1021Z

Orai ataskaitas ir orų prognozės (METAR, TAF).

turimą stotys yra geltonos ir raudonos taškus žemėlapyje.

Perkelti pele per norėdami pamatyti stoties vardą.

Tada spustelėkite, norėdami matyti oro stebėjimo ir prognozės.

Norėdami pakeisti žemėlapį: spustelėkite ant žalios mygtukų su juodo kryžiaus žemyn,; žalią mygtuką su brūkšneliu, jei norite nutolinti; arba žalių rodyklių gretimoms žemėlapius.


METAR-TAF: